Terminal Aerodrome Forecast
Issued by NWS

Current Version | Previous Version | Graphics & Text | Print | Product List | Glossary On
Versions: 1 2 3 4 5 6 7 8 9 10 11 12 13 14 15 16 17 18 19 20 21 22 23 24
000
FTUS41 KRLX 241100
TAFCKB
TAF
KCKB 241121Z 2412/2512 31004KT 1SM -SN BR OVC004
     FM241400 30004KT 3SM -SN OVC005
     FM241500 00000KT P6SM OVC008
     FM241600 25008G13KT P6SM BKN020
     FM250200 25009G14KT 6SM -SHSN OVC020=

USA.gov is the U.S. government's official web portal to all federal, state and local government web resources and services.